sensor_id;sensor_type;location;lat;lon;timestamp;temperature;humidity
12967;DHT22;6548;49.996;8.238;2024-03-06T00:01:38;6.10;99.90
12967;DHT22;6548;49.996;8.238;2024-03-06T00:04:03;6.00;99.90
12967;DHT22;6548;49.996;8.238;2024-03-06T00:06:29;5.90;99.90
12967;DHT22;6548;49.996;8.238;2024-03-06T00:08:56;5.90;99.90
12967;DHT22;6548;49.996;8.238;2024-03-06T00:11:21;5.90;99.90
12967;DHT22;6548;49.996;8.238;2024-03-06T00:13:47;5.90;99.90
12967;DHT22;6548;49.996;8.238;2024-03-06T00:16:13;5.80;99.90
12967;DHT22;6548;49.996;8.238;2024-03-06T00:18:39;5.80;99.90
12967;DHT22;6548;49.996;8.238;2024-03-06T00:21:06;5.80;99.90
12967;DHT22;6548;49.996;8.238;2024-03-06T00:23:32;5.80;99.90
12967;DHT22;6548;49.996;8.238;2024-03-06T00:25:57;5.80;99.90
12967;DHT22;6548;49.996;8.238;2024-03-06T00:28:23;5.70;99.90
12967;DHT22;6548;49.996;8.238;2024-03-06T00:30:49;5.70;99.90
12967;DHT22;6548;49.996;8.238;2024-03-06T00:33:15;5.70;99.90
12967;DHT22;6548;49.996;8.238;2024-03-06T00:35:40;5.70;99.90
12967;DHT22;6548;49.996;8.238;2024-03-06T00:38:06;5.70;99.90
12967;DHT22;6548;49.996;8.238;2024-03-06T00:40:32;5.60;99.90
12967;DHT22;6548;49.996;8.238;2024-03-06T00:42:58;5.60;99.90
12967;DHT22;6548;49.996;8.238;2024-03-06T00:45:24;5.60;99.90
12967;DHT22;6548;49.996;8.238;2024-03-06T00:47:50;5.50;99.90
12967;DHT22;6548;49.996;8.238;2024-03-06T00:50:16;5.50;99.90
12967;DHT22;6548;49.996;8.238;2024-03-06T00:52:45;5.50;99.90
12967;DHT22;6548;49.996;8.238;2024-03-06T00:55:11;5.50;99.90
12967;DHT22;6548;49.996;8.238;2024-03-06T00:57:36;5.50;99.90
12967;DHT22;6548;49.996;8.238;2024-03-06T01:00:03;5.40;99.90
12967;DHT22;6548;49.996;8.238;2024-03-06T01:02:38;5.40;99.90
12967;DHT22;6548;49.996;8.238;2024-03-06T01:05:04;5.50;99.90
12967;DHT22;6548;49.996;8.238;2024-03-06T01:07:30;5.40;99.90
12967;DHT22;6548;49.996;8.238;2024-03-06T01:09:56;5.40;99.90
12967;DHT22;6548;49.996;8.238;2024-03-06T01:12:26;5.40;99.90
12967;DHT22;6548;49.996;8.238;2024-03-06T01:14:52;5.50;99.90
12967;DHT22;6548;49.996;8.238;2024-03-06T01:17:17;5.50;99.90
12967;DHT22;6548;49.996;8.238;2024-03-06T01:19:43;5.60;99.90
12967;DHT22;6548;49.996;8.238;2024-03-06T01:22:09;5.60;99.90
12967;DHT22;6548;49.996;8.238;2024-03-06T01:24:35;5.60;99.90
12967;DHT22;6548;49.996;8.238;2024-03-06T01:27:00;5.60;99.90
12967;DHT22;6548;49.996;8.238;2024-03-06T01:29:28;5.60;99.90
12967;DHT22;6548;49.996;8.238;2024-03-06T01:31:54;5.60;99.90
12967;DHT22;6548;49.996;8.238;2024-03-06T01:34:20;5.50;99.90
12967;DHT22;6548;49.996;8.238;2024-03-06T01:36:45;5.40;99.90
12967;DHT22;6548;49.996;8.238;2024-03-06T01:39:11;5.40;99.90
12967;DHT22;6548;49.996;8.238;2024-03-06T01:41:37;5.50;99.90
12967;DHT22;6548;49.996;8.238;2024-03-06T01:44:03;5.50;99.90
12967;DHT22;6548;49.996;8.238;2024-03-06T01:46:31;5.50;99.90
12967;DHT22;6548;49.996;8.238;2024-03-06T01:48:56;5.40;99.90
12967;DHT22;6548;49.996;8.238;2024-03-06T01:51:22;5.40;99.90
12967;DHT22;6548;49.996;8.238;2024-03-06T01:53:50;5.40;99.90
12967;DHT22;6548;49.996;8.238;2024-03-06T01:56:16;5.40;99.90
12967;DHT22;6548;49.996;8.238;2024-03-06T01:58:44;5.50;99.90
12967;DHT22;6548;49.996;8.238;2024-03-06T02:01:11;5.50;99.90
12967;DHT22;6548;49.996;8.238;2024-03-06T02:03:37;5.60;99.90
12967;DHT22;6548;49.996;8.238;2024-03-06T02:06:03;5.50;99.90
12967;DHT22;6548;49.996;8.238;2024-03-06T02:08:30;5.60;99.90
12967;DHT22;6548;49.996;8.238;2024-03-06T02:10:56;5.60;99.90
12967;DHT22;6548;49.996;8.238;2024-03-06T02:13:21;5.70;99.90
12967;DHT22;6548;49.996;8.238;2024-03-06T02:15:48;5.70;99.90
12967;DHT22;6548;49.996;8.238;2024-03-06T02:18:14;5.70;99.90
12967;DHT22;6548;49.996;8.238;2024-03-06T02:20:40;5.70;99.90
12967;DHT22;6548;49.996;8.238;2024-03-06T02:23:05;5.70;99.90
12967;DHT22;6548;49.996;8.238;2024-03-06T02:25:31;5.70;99.90
12967;DHT22;6548;49.996;8.238;2024-03-06T02:27:57;5.80;99.90
12967;DHT22;6548;49.996;8.238;2024-03-06T02:30:22;5.80;99.90
12967;DHT22;6548;49.996;8.238;2024-03-06T02:32:48;5.80;99.90
12967;DHT22;6548;49.996;8.238;2024-03-06T02:35:14;5.80;99.90
12967;DHT22;6548;49.996;8.238;2024-03-06T02:37:42;5.80;99.90
12967;DHT22;6548;49.996;8.238;2024-03-06T02:40:09;5.70;99.90
12967;DHT22;6548;49.996;8.238;2024-03-06T02:42:38;5.70;99.90
12967;DHT22;6548;49.996;8.238;2024-03-06T02:45:05;5.60;99.90
12967;DHT22;6548;49.996;8.238;2024-03-06T02:47:31;5.50;99.90
12967;DHT22;6548;49.996;8.238;2024-03-06T02:49:56;5.40;99.90
12967;DHT22;6548;49.996;8.238;2024-03-06T02:52:22;5.30;99.90
12967;DHT22;6548;49.996;8.238;2024-03-06T02:54:47;5.30;99.90
12967;DHT22;6548;49.996;8.238;2024-03-06T02:57:13;5.20;99.90
12967;DHT22;6548;49.996;8.238;2024-03-06T02:59:42;5.20;99.90
12967;DHT22;6548;49.996;8.238;2024-03-06T03:02:08;5.20;99.90
12967;DHT22;6548;49.996;8.238;2024-03-06T03:04:33;5.10;99.90
12967;DHT22;6548;49.996;8.238;2024-03-06T03:06:59;5.00;99.90
12967;DHT22;6548;49.996;8.238;2024-03-06T03:09:24;5.00;99.90
12967;DHT22;6548;49.996;8.238;2024-03-06T03:11:50;4.90;99.90
12967;DHT22;6548;49.996;8.238;2024-03-06T03:14:16;4.80;99.90
12967;DHT22;6548;49.996;8.238;2024-03-06T03:16:41;4.90;99.90
12967;DHT22;6548;49.996;8.238;2024-03-06T03:19:09;4.90;99.90
12967;DHT22;6548;49.996;8.238;2024-03-06T03:21:35;4.90;99.90
12967;DHT22;6548;49.996;8.238;2024-03-06T03:24:01;4.80;99.90
12967;DHT22;6548;49.996;8.238;2024-03-06T03:26:26;4.80;99.90
12967;DHT22;6548;49.996;8.238;2024-03-06T03:28:52;4.60;99.90
12967;DHT22;6548;49.996;8.238;2024-03-06T03:31:17;4.70;99.90
12967;DHT22;6548;49.996;8.238;2024-03-06T03:33:43;4.60;99.90
12967;DHT22;6548;49.996;8.238;2024-03-06T03:36:09;4.60;99.90
12967;DHT22;6548;49.996;8.238;2024-03-06T03:38:38;4.60;99.90
12967;DHT22;6548;49.996;8.238;2024-03-06T03:41:12;4.50;99.90
12967;DHT22;6548;49.996;8.238;2024-03-06T03:43:39;4.50;99.90
12967;DHT22;6548;49.996;8.238;2024-03-06T03:46:05;4.40;99.90
12967;DHT22;6548;49.996;8.238;2024-03-06T03:48:32;4.50;99.90
12967;DHT22;6548;49.996;8.238;2024-03-06T03:50:57;4.40;99.90
12967;DHT22;6548;49.996;8.238;2024-03-06T03:53:23;4.50;99.90
12967;DHT22;6548;49.996;8.238;2024-03-06T03:55:48;4.50;99.90
12967;DHT22;6548;49.996;8.238;2024-03-06T03:58:14;4.50;99.90
12967;DHT22;6548;49.996;8.238;2024-03-06T04:00:40;4.40;99.90
12967;DHT22;6548;49.996;8.238;2024-03-06T04:03:05;4.40;99.90
12967;DHT22;6548;49.996;8.238;2024-03-06T04:05:31;4.50;99.90
12967;DHT22;6548;49.996;8.238;2024-03-06T04:07:57;4.50;99.90
12967;DHT22;6548;49.996;8.238;2024-03-06T04:10:22;4.50;99.90
12967;DHT22;6548;49.996;8.238;2024-03-06T04:12:48;4.50;99.90
12967;DHT22;6548;49.996;8.238;2024-03-06T04:15:14;4.50;99.90
12967;DHT22;6548;49.996;8.238;2024-03-06T04:17:40;4.40;99.90
12967;DHT22;6548;49.996;8.238;2024-03-06T04:20:06;4.40;99.90
12967;DHT22;6548;49.996;8.238;2024-03-06T04:22:32;4.30;99.90
12967;DHT22;6548;49.996;8.238;2024-03-06T04:24:58;4.40;99.90
12967;DHT22;6548;49.996;8.238;2024-03-06T04:27:24;4.40;99.90
12967;DHT22;6548;49.996;8.238;2024-03-06T04:29:51;4.40;99.90
12967;DHT22;6548;49.996;8.238;2024-03-06T04:32:18;4.40;99.90
12967;DHT22;6548;49.996;8.238;2024-03-06T04:34:43;4.50;99.90
12967;DHT22;6548;49.996;8.238;2024-03-06T04:37:09;4.60;99.90
12967;DHT22;6548;49.996;8.238;2024-03-06T04:39:34;4.50;99.90
12967;DHT22;6548;49.996;8.238;2024-03-06T04:42:00;4.50;99.90
12967;DHT22;6548;49.996;8.238;2024-03-06T04:44:25;4.50;99.90
12967;DHT22;6548;49.996;8.238;2024-03-06T04:46:51;4.60;99.90
12967;DHT22;6548;49.996;8.238;2024-03-06T04:49:17;4.60;99.90
12967;DHT22;6548;49.996;8.238;2024-03-06T04:51:42;4.50;99.90
12967;DHT22;6548;49.996;8.238;2024-03-06T04:54:08;4.50;99.90
12967;DHT22;6548;49.996;8.238;2024-03-06T04:56:34;4.40;99.90
12967;DHT22;6548;49.996;8.238;2024-03-06T04:58:59;4.40;99.90
12967;DHT22;6548;49.996;8.238;2024-03-06T05:01:30;4.40;99.90
12967;DHT22;6548;49.996;8.238;2024-03-06T05:03:56;4.40;99.90
12967;DHT22;6548;49.996;8.238;2024-03-06T05:06:22;4.50;99.90
12967;DHT22;6548;49.996;8.238;2024-03-06T05:08:48;4.50;99.90
12967;DHT22;6548;49.996;8.238;2024-03-06T05:11:14;4.40;99.90
12967;DHT22;6548;49.996;8.238;2024-03-06T05:13:40;4.40;99.90
12967;DHT22;6548;49.996;8.238;2024-03-06T05:16:06;4.40;99.90
12967;DHT22;6548;49.996;8.238;2024-03-06T05:18:34;4.30;99.90
12967;DHT22;6548;49.996;8.238;2024-03-06T05:20:59;4.30;99.90
12967;DHT22;6548;49.996;8.238;2024-03-06T05:23:25;4.30;99.90
12967;DHT22;6548;49.996;8.238;2024-03-06T05:25:50;4.30;99.90
12967;DHT22;6548;49.996;8.238;2024-03-06T05:28:16;4.40;99.90
12967;DHT22;6548;49.996;8.238;2024-03-06T05:30:42;4.40;99.90
12967;DHT22;6548;49.996;8.238;2024-03-06T05:33:07;4.50;99.90
12967;DHT22;6548;49.996;8.238;2024-03-06T05:35:33;4.50;99.90
12967;DHT22;6548;49.996;8.238;2024-03-06T05:37:58;4.40;99.90
12967;DHT22;6548;49.996;8.238;2024-03-06T05:40:24;4.40;99.90
12967;DHT22;6548;49.996;8.238;2024-03-06T05:42:49;4.40;99.90
12967;DHT22;6548;49.996;8.238;2024-03-06T05:45:15;4.40;99.90
12967;DHT22;6548;49.996;8.238;2024-03-06T05:47:41;4.40;99.90
12967;DHT22;6548;49.996;8.238;2024-03-06T05:50:06;4.40;99.90
12967;DHT22;6548;49.996;8.238;2024-03-06T05:52:32;4.40;99.90
12967;DHT22;6548;49.996;8.238;2024-03-06T05:54:59;4.40;99.90
12967;DHT22;6548;49.996;8.238;2024-03-06T05:57:24;4.40;99.90
12967;DHT22;6548;49.996;8.238;2024-03-06T05:59:50;4.20;99.90
12967;DHT22;6548;49.996;8.238;2024-03-06T06:02:16;4.10;99.90
12967;DHT22;6548;49.996;8.238;2024-03-06T06:04:42;4.10;99.90
12967;DHT22;6548;49.996;8.238;2024-03-06T06:07:08;4.00;99.90
12967;DHT22;6548;49.996;8.238;2024-03-06T06:09:33;4.00;99.90
12967;DHT22;6548;49.996;8.238;2024-03-06T06:11:59;4.00;99.90
12967;DHT22;6548;49.996;8.238;2024-03-06T06:14:25;4.00;99.90
12967;DHT22;6548;49.996;8.238;2024-03-06T06:16:52;4.00;99.90
12967;DHT22;6548;49.996;8.238;2024-03-06T06:19:18;4.10;99.90
12967;DHT22;6548;49.996;8.238;2024-03-06T06:21:43;4.10;99.90
12967;DHT22;6548;49.996;8.238;2024-03-06T06:24:09;4.10;99.90
12967;DHT22;6548;49.996;8.238;2024-03-06T06:26:34;4.20;99.90
12967;DHT22;6548;49.996;8.238;2024-03-06T06:29:00;4.20;99.90
12967;DHT22;6548;49.996;8.238;2024-03-06T06:31:26;4.30;99.90
12967;DHT22;6548;49.996;8.238;2024-03-06T06:33:53;4.40;99.90
12967;DHT22;6548;49.996;8.238;2024-03-06T06:36:19;4.40;99.90
12967;DHT22;6548;49.996;8.238;2024-03-06T06:38:46;4.50;99.90
12967;DHT22;6548;49.996;8.238;2024-03-06T06:41:11;4.50;99.90
12967;DHT22;6548;49.996;8.238;2024-03-06T06:43:39;4.50;99.90
12967;DHT22;6548;49.996;8.238;2024-03-06T06:46:07;4.60;99.90
12967;DHT22;6548;49.996;8.238;2024-03-06T06:48:32;4.60;99.90
12967;DHT22;6548;49.996;8.238;2024-03-06T06:50:59;4.60;99.90
12967;DHT22;6548;49.996;8.238;2024-03-06T06:53:26;4.70;99.90
12967;DHT22;6548;49.996;8.238;2024-03-06T06:55:51;4.70;99.90
12967;DHT22;6548;49.996;8.238;2024-03-06T06:58:16;4.70;99.90
12967;DHT22;6548;49.996;8.238;2024-03-06T07:00:42;4.70;99.90
12967;DHT22;6548;49.996;8.238;2024-03-06T07:03:08;4.80;99.90
12967;DHT22;6548;49.996;8.238;2024-03-06T07:05:33;4.90;99.90
12967;DHT22;6548;49.996;8.238;2024-03-06T07:07:59;4.90;99.90
12967;DHT22;6548;49.996;8.238;2024-03-06T07:10:24;5.10;99.90
12967;DHT22;6548;49.996;8.238;2024-03-06T07:12:50;5.20;99.90
12967;DHT22;6548;49.996;8.238;2024-03-06T07:15:16;5.40;99.90
12967;DHT22;6548;49.996;8.238;2024-03-06T07:17:42;5.50;99.90
12967;DHT22;6548;49.996;8.238;2024-03-06T07:20:08;5.70;99.90
12967;DHT22;6548;49.996;8.238;2024-03-06T07:22:34;5.90;99.90
12967;DHT22;6548;49.996;8.238;2024-03-06T07:25:00;5.90;99.90
12967;DHT22;6548;49.996;8.238;2024-03-06T07:27:27;6.00;99.90
12967;DHT22;6548;49.996;8.238;2024-03-06T07:29:53;6.00;99.90
12967;DHT22;6548;49.996;8.238;2024-03-06T07:32:19;6.00;99.90
12967;DHT22;6548;49.996;8.238;2024-03-06T07:34:44;6.10;99.90
12967;DHT22;6548;49.996;8.238;2024-03-06T07:37:10;6.10;99.90
12967;DHT22;6548;49.996;8.238;2024-03-06T07:39:35;6.10;99.90
12967;DHT22;6548;49.996;8.238;2024-03-06T07:42:01;6.20;99.90
12967;DHT22;6548;49.996;8.238;2024-03-06T07:44:27;6.20;99.90
12967;DHT22;6548;49.996;8.238;2024-03-06T07:46:53;6.30;99.90
12967;DHT22;6548;49.996;8.238;2024-03-06T07:49:19;6.30;99.90
12967;DHT22;6548;49.996;8.238;2024-03-06T07:51:47;6.50;99.90
12967;DHT22;6548;49.996;8.238;2024-03-06T07:54:13;6.60;99.90
12967;DHT22;6548;49.996;8.238;2024-03-06T07:56:38;6.80;99.90
12967;DHT22;6548;49.996;8.238;2024-03-06T07:59:04;6.90;99.90
12967;DHT22;6548;49.996;8.238;2024-03-06T08:01:32;7.10;99.90
12967;DHT22;6548;49.996;8.238;2024-03-06T08:03:58;7.20;99.90
12967;DHT22;6548;49.996;8.238;2024-03-06T08:06:24;7.30;99.90
12967;DHT22;6548;49.996;8.238;2024-03-06T08:08:50;7.40;99.90
12967;DHT22;6548;49.996;8.238;2024-03-06T08:11:17;7.40;99.90
12967;DHT22;6548;49.996;8.238;2024-03-06T08:13:43;7.60;99.90
12967;DHT22;6548;49.996;8.238;2024-03-06T08:16:09;7.80;99.90
12967;DHT22;6548;49.996;8.238;2024-03-06T08:18:36;7.80;99.90
12967;DHT22;6548;49.996;8.238;2024-03-06T08:21:02;7.90;99.90
12967;DHT22;6548;49.996;8.238;2024-03-06T08:23:32;8.10;99.90
12967;DHT22;6548;49.996;8.238;2024-03-06T08:25:58;8.30;99.90
12967;DHT22;6548;49.996;8.238;2024-03-06T08:28:25;8.30;99.90
12967;DHT22;6548;49.996;8.238;2024-03-06T08:30:51;8.50;99.90
12967;DHT22;6548;49.996;8.238;2024-03-06T08:33:17;8.60;99.90
12967;DHT22;6548;49.996;8.238;2024-03-06T08:35:43;8.80;99.90
12967;DHT22;6548;49.996;8.238;2024-03-06T08:38:08;8.60;99.90
12967;DHT22;6548;49.996;8.238;2024-03-06T08:40:34;8.70;99.90
12967;DHT22;6548;49.996;8.238;2024-03-06T08:43:00;8.80;99.90
12967;DHT22;6548;49.996;8.238;2024-03-06T08:45:25;8.90;99.90
12967;DHT22;6548;49.996;8.238;2024-03-06T08:47:51;9.00;99.90
12967;DHT22;6548;49.996;8.238;2024-03-06T08:50:19;9.40;99.90
12967;DHT22;6548;49.996;8.238;2024-03-06T08:52:45;9.70;99.90
12967;DHT22;6548;49.996;8.238;2024-03-06T08:55:11;9.70;99.90
12967;DHT22;6548;49.996;8.238;2024-03-06T08:57:37;9.80;99.90
12967;DHT22;6548;49.996;8.238;2024-03-06T09:00:07;9.90;99.90
12967;DHT22;6548;49.996;8.238;2024-03-06T09:02:36;10.50;99.90
12967;DHT22;6548;49.996;8.238;2024-03-06T09:05:05;10.70;99.90
12967;DHT22;6548;49.996;8.238;2024-03-06T09:07:33;10.70;99.90
12967;DHT22;6548;49.996;8.238;2024-03-06T09:10:13;10.70;99.90
12967;DHT22;6548;49.996;8.238;2024-03-06T09:12:39;10.80;99.90
12967;DHT22;6548;49.996;8.238;2024-03-06T09:15:08;10.90;99.90
12967;DHT22;6548;49.996;8.238;2024-03-06T09:17:34;10.80;99.90
12967;DHT22;6548;49.996;8.238;2024-03-06T09:20:00;10.80;99.90
12967;DHT22;6548;49.996;8.238;2024-03-06T09:22:30;10.70;99.90
12967;DHT22;6548;49.996;8.238;2024-03-06T09:24:55;10.90;99.90
12967;DHT22;6548;49.996;8.238;2024-03-06T09:27:21;11.00;99.90
12967;DHT22;6548;49.996;8.238;2024-03-06T09:29:47;11.30;99.90
12967;DHT22;6548;49.996;8.238;2024-03-06T09:32:12;11.40;99.90
12967;DHT22;6548;49.996;8.238;2024-03-06T09:34:41;11.70;99.90
12967;DHT22;6548;49.996;8.238;2024-03-06T09:37:06;11.70;99.90
12967;DHT22;6548;49.996;8.238;2024-03-06T09:39:32;11.80;99.90
12967;DHT22;6548;49.996;8.238;2024-03-06T09:41:59;11.70;99.90
12967;DHT22;6548;49.996;8.238;2024-03-06T09:44:27;12.00;99.90
12967;DHT22;6548;49.996;8.238;2024-03-06T09:46:53;12.40;99.90
12967;DHT22;6548;49.996;8.238;2024-03-06T09:49:19;12.70;99.90
12967;DHT22;6548;49.996;8.238;2024-03-06T09:51:47;12.70;99.90
12967;DHT22;6548;49.996;8.238;2024-03-06T09:54:15;12.60;99.90
12967;DHT22;6548;49.996;8.238;2024-03-06T09:56:42;12.30;99.90
12967;DHT22;6548;49.996;8.238;2024-03-06T09:59:09;12.50;99.90
12967;DHT22;6548;49.996;8.238;2024-03-06T10:01:40;12.70;99.90
12967;DHT22;6548;49.996;8.238;2024-03-06T10:04:28;12.70;99.90
12967;DHT22;6548;49.996;8.238;2024-03-06T10:06:59;13.00;99.90
12967;DHT22;6548;49.996;8.238;2024-03-06T10:09:26;13.40;99.90
12967;DHT22;6548;49.996;8.238;2024-03-06T10:11:52;13.70;99.90
12967;DHT22;6548;49.996;8.238;2024-03-06T10:14:19;14.00;99.90
12967;DHT22;6548;49.996;8.238;2024-03-06T10:16:58;14.50;99.90
12967;DHT22;6548;49.996;8.238;2024-03-06T10:19:25;15.20;99.90
12967;DHT22;6548;49.996;8.238;2024-03-06T10:21:53;15.60;99.90
12967;DHT22;6548;49.996;8.238;2024-03-06T10:24:23;16.10;99.90
12967;DHT22;6548;49.996;8.238;2024-03-06T10:26:54;16.60;99.90
12967;DHT22;6548;49.996;8.238;2024-03-06T10:29:21;18.20;99.90
12967;DHT22;6548;49.996;8.238;2024-03-06T10:31:55;19.70;99.90
12967;DHT22;6548;49.996;8.238;2024-03-06T10:34:25;21.40;99.90
12967;DHT22;6548;49.996;8.238;2024-03-06T10:36:56;24.10;99.90
12967;DHT22;6548;49.996;8.238;2024-03-06T10:39:22;25.90;90.50
12967;DHT22;6548;49.996;8.238;2024-03-06T10:44:27;28.10;67.10
12967;DHT22;6548;49.996;8.238;2024-03-06T10:49:26;29.50;53.40
12967;DHT22;6548;49.996;8.238;2024-03-06T10:54:29;28.30;49.50
12967;DHT22;6548;49.996;8.238;2024-03-06T10:57:00;28.10;49.90
12967;DHT22;6548;49.996;8.238;2024-03-06T10:59:27;27.30;49.80
12967;DHT22;6548;49.996;8.238;2024-03-06T11:01:54;25.10;52.40
12967;DHT22;6548;49.996;8.238;2024-03-06T11:04:20;22.50;54.20
12967;DHT22;6548;49.996;8.238;2024-03-06T11:06:46;24.10;58.00
12967;DHT22;6548;49.996;8.238;2024-03-06T11:09:13;26.30;52.30
12967;DHT22;6548;49.996;8.238;2024-03-06T11:11:51;28.80;47.40
12967;DHT22;6548;49.996;8.238;2024-03-06T11:14:17;30.70;42.10
12967;DHT22;6548;49.996;8.238;2024-03-06T11:17:07;31.50;41.90
12967;DHT22;6548;49.996;8.238;2024-03-06T11:33:28;29.60;38.70
12967;DHT22;6548;49.996;8.238;2024-03-06T11:36:12;29.60;37.80
12967;DHT22;6548;49.996;8.238;2024-03-06T11:38:40;30.00;37.90
12967;DHT22;6548;49.996;8.238;2024-03-06T11:41:06;30.20;36.20
12967;DHT22;6548;49.996;8.238;2024-03-06T11:43:45;27.60;38.20
12967;DHT22;6548;49.996;8.238;2024-03-06T11:46:11;26.10;41.50
12967;DHT22;6548;49.996;8.238;2024-03-06T11:48:37;24.60;44.20
12967;DHT22;6548;49.996;8.238;2024-03-06T11:51:03;23.20;46.10
12967;DHT22;6548;49.996;8.238;2024-03-06T11:53:30;21.90;49.70
12967;DHT22;6548;49.996;8.238;2024-03-06T11:55:57;20.40;52.70
12967;DHT22;6548;49.996;8.238;2024-03-06T11:58:23;19.10;55.40
12967;DHT22;6548;49.996;8.238;2024-03-06T12:00:49;18.00;59.10
12967;DHT22;6548;49.996;8.238;2024-03-06T12:03:15;17.50;61.70
12967;DHT22;6548;49.996;8.238;2024-03-06T12:05:41;17.10;63.50
12967;DHT22;6548;49.996;8.238;2024-03-06T12:08:07;16.70;67.70
12967;DHT22;6548;49.996;8.238;2024-03-06T12:10:38;16.50;68.70
12967;DHT22;6548;49.996;8.238;2024-03-06T12:13:08;16.10;71.40
12967;DHT22;6548;49.996;8.238;2024-03-06T12:15:33;15.80;71.40
12967;DHT22;6548;49.996;8.238;2024-03-06T12:18:01;15.70;75.50
12967;DHT22;6548;49.996;8.238;2024-03-06T12:20:26;15.50;76.80
12967;DHT22;6548;49.996;8.238;2024-03-06T12:22:53;15.30;77.60
12967;DHT22;6548;49.996;8.238;2024-03-06T12:25:23;15.10;80.20
12967;DHT22;6548;49.996;8.238;2024-03-06T12:27:49;14.90;81.80
12967;DHT22;6548;49.996;8.238;2024-03-06T12:30:19;14.80;83.20
12967;DHT22;6548;49.996;8.238;2024-03-06T12:32:56;14.70;83.90
12967;DHT22;6548;49.996;8.238;2024-03-06T12:35:26;14.50;87.40
12967;DHT22;6548;49.996;8.238;2024-03-06T12:37:51;14.50;89.60
12967;DHT22;6548;49.996;8.238;2024-03-06T12:40:18;14.60;90.00
12967;DHT22;6548;49.996;8.238;2024-03-06T12:42:43;14.60;91.60
12967;DHT22;6548;49.996;8.238;2024-03-06T12:45:11;14.60;91.60
12967;DHT22;6548;49.996;8.238;2024-03-06T12:47:43;14.60;92.00
12967;DHT22;6548;49.996;8.238;2024-03-06T12:50:10;14.90;93.70
12967;DHT22;6548;49.996;8.238;2024-03-06T12:52:39;14.90;93.70
12967;DHT22;6548;49.996;8.238;2024-03-06T12:55:05;14.70;94.30
12967;DHT22;6548;49.996;8.238;2024-03-06T12:57:34;15.10;94.00
12967;DHT22;6548;49.996;8.238;2024-03-06T13:00:00;15.70;93.90
12967;DHT22;6548;49.996;8.238;2024-03-06T13:02:26;16.00;92.80
12967;DHT22;6548;49.996;8.238;2024-03-06T13:04:51;16.60;92.80
12967;DHT22;6548;49.996;8.238;2024-03-06T13:07:17;17.40;91.40
12967;DHT22;6548;49.996;8.238;2024-03-06T13:09:43;18.60;90.30
12967;DHT22;6548;49.996;8.238;2024-03-06T13:12:08;19.50;83.70
12967;DHT22;6548;49.996;8.238;2024-03-06T13:14:34;20.40;79.40
12967;DHT22;6548;49.996;8.238;2024-03-06T13:17:00;19.80;77.90
12967;DHT22;6548;49.996;8.238;2024-03-06T13:19:26;18.30;79.70
12967;DHT22;6548;49.996;8.238;2024-03-06T13:21:51;17.20;84.30
12967;DHT22;6548;49.996;8.238;2024-03-06T13:24:18;16.50;88.50
12967;DHT22;6548;49.996;8.238;2024-03-06T13:26:47;16.10;90.40
12967;DHT22;6548;49.996;8.238;2024-03-06T13:29:13;15.80;91.00
12967;DHT22;6548;49.996;8.238;2024-03-06T13:31:39;15.90;91.70
12967;DHT22;6548;49.996;8.238;2024-03-06T13:34:05;15.90;92.30
12967;DHT22;6548;49.996;8.238;2024-03-06T13:36:30;16.00;91.90
12967;DHT22;6548;49.996;8.238;2024-03-06T13:38:56;16.20;91.60
12967;DHT22;6548;49.996;8.238;2024-03-06T13:41:22;15.80;92.10
12967;DHT22;6548;49.996;8.238;2024-03-06T13:43:48;15.40;93.10
12967;DHT22;6548;49.996;8.238;2024-03-06T13:46:14;15.10;93.00
12967;DHT22;6548;49.996;8.238;2024-03-06T13:48:40;14.80;94.00
12967;DHT22;6548;49.996;8.238;2024-03-06T13:51:05;14.50;94.00
12967;DHT22;6548;49.996;8.238;2024-03-06T13:53:31;14.40;95.20
12967;DHT22;6548;49.996;8.238;2024-03-06T13:55:57;14.20;95.90
12967;DHT22;6548;49.996;8.238;2024-03-06T13:58:22;14.00;96.60
12967;DHT22;6548;49.996;8.238;2024-03-06T14:00:48;14.00;97.30
12967;DHT22;6548;49.996;8.238;2024-03-06T14:03:14;14.10;97.70
12967;DHT22;6548;49.996;8.238;2024-03-06T14:05:39;14.10;97.90
12967;DHT22;6548;49.996;8.238;2024-03-06T14:08:05;14.20;97.90
12967;DHT22;6548;49.996;8.238;2024-03-06T14:10:31;14.10;98.20
12967;DHT22;6548;49.996;8.238;2024-03-06T14:13:00;14.00;98.50
12967;DHT22;6548;49.996;8.238;2024-03-06T14:15:25;13.80;99.30
12967;DHT22;6548;49.996;8.238;2024-03-06T14:17:54;13.60;99.80
12967;DHT22;6548;49.996;8.238;2024-03-06T14:20:21;13.40;99.90
12967;DHT22;6548;49.996;8.238;2024-03-06T14:22:46;13.10;99.90
12967;DHT22;6548;49.996;8.238;2024-03-06T14:25:12;12.90;99.90
12967;DHT22;6548;49.996;8.238;2024-03-06T14:27:38;12.70;99.90
12967;DHT22;6548;49.996;8.238;2024-03-06T14:30:05;12.50;99.90
12967;DHT22;6548;49.996;8.238;2024-03-06T14:32:33;12.40;99.90
12967;DHT22;6548;49.996;8.238;2024-03-06T14:34:58;12.30;99.90
12967;DHT22;6548;49.996;8.238;2024-03-06T14:37:24;12.20;99.90
12967;DHT22;6548;49.996;8.238;2024-03-06T14:39:49;12.20;99.90
12967;DHT22;6548;49.996;8.238;2024-03-06T14:42:16;12.20;99.90
12967;DHT22;6548;49.996;8.238;2024-03-06T14:44:42;12.10;99.90
12967;DHT22;6548;49.996;8.238;2024-03-06T14:47:09;12.20;99.90
12967;DHT22;6548;49.996;8.238;2024-03-06T14:49:34;12.20;99.90
12967;DHT22;6548;49.996;8.238;2024-03-06T14:52:00;12.20;99.90
12967;DHT22;6548;49.996;8.238;2024-03-06T14:54:25;12.20;99.90
12967;DHT22;6548;49.996;8.238;2024-03-06T14:56:52;12.30;99.90
12967;DHT22;6548;49.996;8.238;2024-03-06T14:59:18;12.30;99.90
12967;DHT22;6548;49.996;8.238;2024-03-06T15:01:44;12.40;99.90
12967;DHT22;6548;49.996;8.238;2024-03-06T15:04:10;12.60;99.90
12967;DHT22;6548;49.996;8.238;2024-03-06T15:06:37;12.70;99.90
12967;DHT22;6548;49.996;8.238;2024-03-06T15:09:03;12.80;99.90
12967;DHT22;6548;49.996;8.238;2024-03-06T15:11:30;12.90;99.90
12967;DHT22;6548;49.996;8.238;2024-03-06T15:13:58;13.00;99.90
12967;DHT22;6548;49.996;8.238;2024-03-06T15:16:24;13.10;99.90
12967;DHT22;6548;49.996;8.238;2024-03-06T15:18:49;13.20;99.90
12967;DHT22;6548;49.996;8.238;2024-03-06T15:21:17;13.20;99.90
12967;DHT22;6548;49.996;8.238;2024-03-06T15:23:42;13.30;99.90
12967;DHT22;6548;49.996;8.238;2024-03-06T15:26:08;13.40;99.90
12967;DHT22;6548;49.996;8.238;2024-03-06T15:28:33;13.30;99.90
12967;DHT22;6548;49.996;8.238;2024-03-06T15:30:59;13.40;99.90
12967;DHT22;6548;49.996;8.238;2024-03-06T15:33:28;13.30;99.90
12967;DHT22;6548;49.996;8.238;2024-03-06T15:35:54;13.20;99.90
12967;DHT22;6548;49.996;8.238;2024-03-06T15:38:19;13.00;99.90
12967;DHT22;6548;49.996;8.238;2024-03-06T15:40:45;13.00;99.90
12967;DHT22;6548;49.996;8.238;2024-03-06T15:43:13;13.00;99.90
12967;DHT22;6548;49.996;8.238;2024-03-06T15:45:38;13.00;99.90
12967;DHT22;6548;49.996;8.238;2024-03-06T15:48:04;12.90;99.90
12967;DHT22;6548;49.996;8.238;2024-03-06T15:50:30;12.90;99.90
12967;DHT22;6548;49.996;8.238;2024-03-06T15:52:55;12.80;99.90
12967;DHT22;6548;49.996;8.238;2024-03-06T15:55:20;12.80;99.90
12967;DHT22;6548;49.996;8.238;2024-03-06T15:57:46;12.70;99.90
12967;DHT22;6548;49.996;8.238;2024-03-06T16:00:12;12.70;99.90
12967;DHT22;6548;49.996;8.238;2024-03-06T16:02:41;12.50;99.90
12967;DHT22;6548;49.996;8.238;2024-03-06T16:05:07;12.40;99.90
12967;DHT22;6548;49.996;8.238;2024-03-06T16:07:33;12.20;99.90
12967;DHT22;6548;49.996;8.238;2024-03-06T16:09:59;12.10;99.90
12967;DHT22;6548;49.996;8.238;2024-03-06T16:12:24;12.10;99.90